Time;durP1;ratioP1;P1;durP2;ratioP2;P2;SDS_P1;SDS_P2;PMS_P1;PMS_P2;Temp;Humidity;BMP_temperature;BMP_pressure;BME280_temperature;BME280_humidity;BME280_pressure;Samples;Min_cycle;Max_cycle;Signal;HPM_P1;HPM_P2
2023/11/20 00:01:50;;;;;;;;;;;;;;;6.61;51.53;99408.38;5091697;28;19943;-78
2023/11/20 00:04:16;;;;;;;;;;;;;;;6.63;51.06;99411.66;5091735;28;20007;-77
2023/11/20 00:06:41;;;;;;;;;;;;;;;6.59;51.12;99414.75;5091862;28;19955;-77
2023/11/20 00:09:09;;;;;;;;;;;;;;;6.58;51.39;99415.75;5073307;28;20350;-78
2023/11/20 00:11:35;;;;;;;;;;;;;;;6.55;51.17;99410.81;5091429;28;19994;-78
2023/11/20 00:14:00;;;;;;;;;;;;;;;6.57;51.84;99406.22;5091623;28;19959;-77
2023/11/20 00:16:25;;;;;;;;;;;;;;;6.58;51.06;99411.31;5091450;28;19916;-78
2023/11/20 00:18:51;;;;;;;;;;;;;;;6.56;50.84;99412.44;5091358;28;19927;-78
2023/11/20 00:21:16;;;;;;;;;;;;;;;6.53;50.19;99423.25;5091417;28;19916;-78
2023/11/20 00:23:41;;;;;;;;;;;;;;;6.54;49.99;99432.75;5091515;28;19965;-78
2023/11/20 00:26:10;;;;;;;;;;;;;;;6.53;49.78;99431.13;5091400;28;19944;-78
2023/11/20 00:28:35;;;;;;;;;;;;;;;6.47;49.80;99435.19;5091708;28;19942;-78
2023/11/20 00:31:00;;;;;;;;;;;;;;;6.43;49.95;99433.84;5091473;28;20351;-78
2023/11/20 00:33:27;;;;;;;;;;;;;;;6.42;49.87;99441.88;5091454;28;19963;-78
2023/11/20 00:35:52;;;;;;;;;;;;;;;6.44;50.22;99447.78;5091571;28;20307;-78
2023/11/20 00:38:17;;;;;;;;;;;;;;;6.40;49.89;99441.19;5091389;28;19915;-78
2023/11/20 00:40:43;;;;;;;;;;;;;;;6.41;49.71;99435.78;5073304;28;19964;-78
2023/11/20 00:43:08;;;;;;;;;;;;;;;6.42;49.97;99431.38;5091472;28;19916;-77
2023/11/20 00:45:33;;;;;;;;;;;;;;;6.37;50.18;99430.03;5091358;28;20305;-77
2023/11/20 00:47:58;;;;;;;;;;;;;;;6.36;50.50;99451.16;5094166;28;19998;-78
2023/11/20 00:50:24;;;;;;;;;;;;;;;6.36;50.81;99454.63;5094983;28;20305;-78
2023/11/20 00:52:49;;;;;;;;;;;;;;;6.38;50.20;99447.41;5094806;28;19947;-77
2023/11/20 00:55:14;;;;;;;;;;;;;;;6.34;50.41;99447.88;5076568;28;20313;-78
2023/11/20 00:57:40;;;;;;;;;;;;;;;6.31;50.51;99441.16;5094715;28;19912;-78
2023/11/20 01:00:07;;;;;;;;;;;;;;;6.32;50.77;99441.97;5093358;28;19952;-78
2023/11/20 01:02:32;;;;;;;;;;;;;;;6.36;50.50;99452.00;5094658;28;19916;-78
2023/11/20 01:04:58;;;;;;;;;;;;;;;6.38;50.90;99446.59;5076486;28;19912;-77
2023/11/20 01:07:23;;;;;;;;;;;;;;;6.38;50.51;99450.03;5094571;28;19916;-76
2023/11/20 01:09:49;;;;;;;;;;;;;;;6.41;51.09;99442.84;5094406;28;19912;-78
2023/11/20 01:12:14;;;;;;;;;;;;;;;6.43;51.13;99454.00;5094495;28;20033;-77
2023/11/20 01:14:39;;;;;;;;;;;;;;;6.42;51.21;99452.34;5094413;28;19913;-77
2023/11/20 01:17:04;;;;;;;;;;;;;;;6.40;51.26;99464.81;5094343;28;19985;-78
2023/11/20 01:19:30;;;;;;;;;;;;;;;6.34;51.90;99451.31;5094044;28;19927;-78
2023/11/20 01:21:55;;;;;;;;;;;;;;;6.33;51.48;99454.94;5094136;28;20396;-78
2023/11/20 01:24:20;;;;;;;;;;;;;;;6.30;51.15;99449.97;5094256;28;20003;-78
2023/11/20 01:26:45;;;;;;;;;;;;;;;6.25;51.05;99447.00;5094134;28;20367;-77
2023/11/20 01:29:11;;;;;;;;;;;;;;;6.19;51.35;99442.38;5094316;28;19951;-77
2023/11/20 01:31:36;;;;;;;;;;;;;;;6.18;51.03;99443.34;5094392;28;19916;-77
2023/11/20 01:34:01;;;;;;;;;;;;;;;6.16;50.92;99434.81;5094223;28;19912;-78
2023/11/20 01:36:27;;;;;;;;;;;;;;;6.15;50.72;99430.53;5094386;28;19912;-77
2023/11/20 01:38:52;;;;;;;;;;;;;;;6.14;50.94;99433.31;5094281;28;20393;-77
2023/11/20 01:41:17;;;;;;;;;;;;;;;6.05;51.26;99430.63;5094350;28;19912;-78
2023/11/20 01:43:43;;;;;;;;;;;;;;;6.01;51.52;99413.56;5093858;28;20007;-77
2023/11/20 01:46:09;;;;;;;;;;;;;;;6.00;51.31;99437.31;5093796;28;19912;-78
2023/11/20 01:48:36;;;;;;;;;;;;;;;5.93;51.70;99431.81;5093793;28;20327;-78
2023/11/20 01:51:01;;;;;;;;;;;;;;;5.91;51.19;99425.91;5093883;28;19912;-78
2023/11/20 01:53:28;;;;;;;;;;;;;;;5.84;51.27;99427.44;5093652;28;19954;-77
2023/11/20 01:55:53;;;;;;;;;;;;;;;5.84;52.09;99431.84;5093413;28;19991;-77
2023/11/20 01:58:19;;;;;;;;;;;;;;;5.83;52.01;99427.59;5092673;28;20365;-78
2023/11/20 02:00:44;;;;;;;;;;;;;;;5.85;51.94;99418.63;5093694;28;19959;-78
2023/11/20 02:03:10;;;;;;;;;;;;;;;5.87;51.62;99418.47;5093563;28;19923;-77
2023/11/20 02:05:35;;;;;;;;;;;;;;;5.90;51.46;99428.66;5092173;28;19919;-76
2023/11/20 02:08:01;;;;;;;;;;;;;;;5.90;51.34;99434.72;5093795;28;19912;-76
2023/11/20 02:10:26;;;;;;;;;;;;;;;5.91;51.23;99425.06;5093591;28;19915;-77
2023/11/20 02:12:52;;;;;;;;;;;;;;;5.88;51.75;99426.16;5078261;28;19916;-76
2023/11/20 02:15:18;;;;;;;;;;;;;;;5.90;51.25;99437.34;5101247;28;19919;-78
2023/11/20 02:17:43;;;;;;;;;;;;;;;5.89;52.19;99421.75;5093499;28;19924;-77
2023/11/20 02:20:10;;;;;;;;;;;;;;;5.85;52.22;99425.66;5093564;28;20054;-78
2023/11/20 02:22:35;;;;;;;;;;;;;;;5.87;51.59;99426.31;5074985;28;19916;-78
2023/11/20 02:25:01;;;;;;;;;;;;;;;5.84;51.71;99434.47;5093303;28;19912;-77
2023/11/20 02:27:26;;;;;;;;;;;;;;;5.81;52.27;99440.03;5093384;28;20324;-78
2023/11/20 02:29:53;;;;;;;;;;;;;;;5.83;51.89;99431.03;5093049;28;19920;-78
2023/11/20 02:32:19;;;;;;;;;;;;;;;5.81;52.01;99416.44;5092953;28;20015;-77
2023/11/20 02:34:44;;;;;;;;;;;;;;;5.82;52.04;99411.06;5092890;28;20400;-78
2023/11/20 02:37:10;;;;;;;;;;;;;;;5.83;52.15;99409.25;5092812;28;20324;-78
2023/11/20 02:39:36;;;;;;;;;;;;;;;5.82;52.06;99400.56;5092773;28;20293;-78
2023/11/20 02:42:01;;;;;;;;;;;;;;;5.86;51.75;99401.91;5092552;28;20317;-78
2023/11/20 02:44:27;;;;;;;;;;;;;;;5.83;52.27;99396.97;5092664;28;19916;-78
2023/11/20 02:46:52;;;;;;;;;;;;;;;5.82;52.11;99389.28;5092760;28;19912;-78
2023/11/20 02:49:17;;;;;;;;;;;;;;;5.81;52.18;99400.72;5092880;28;20340;-78
2023/11/20 02:51:42;;;;;;;;;;;;;;;5.79;52.31;99413.97;5092595;28;19995;-78
2023/11/20 02:54:08;;;;;;;;;;;;;;;5.75;52.60;99402.97;5092453;28;19942;-78
2023/11/20 02:56:33;;;;;;;;;;;;;;;5.75;52.37;99389.88;5073933;28;19908;-78
2023/11/20 02:58:58;;;;;;;;;;;;;;;5.70;52.53;99407.00;5093088;28;19919;-78
2023/11/20 03:01:24;;;;;;;;;;;;;;;5.70;52.39;99401.78;5092887;28;19915;-78
2023/11/20 03:03:49;;;;;;;;;;;;;;;5.67;52.33;99397.66;5091217;28;19916;-78
2023/11/20 03:06:14;;;;;;;;;;;;;;;5.68;53.12;99394.06;5092509;28;19912;-78
2023/11/20 03:08:40;;;;;;;;;;;;;;;5.70;52.89;99399.97;5092566;28;19935;-77
2023/11/20 03:11:05;;;;;;;;;;;;;;;5.72;52.46;99402.44;5092371;28;19944;-78
2023/11/20 03:13:30;;;;;;;;;;;;;;;5.75;52.83;99396.91;5074234;28;19912;-77
2023/11/20 03:15:56;;;;;;;;;;;;;;;5.75;52.28;99392.50;5074110;28;19939;-78
2023/11/20 03:18:22;;;;;;;;;;;;;;;5.76;52.55;99401.19;5092216;28;19995;-78
2023/11/20 03:20:47;;;;;;;;;;;;;;;5.77;52.76;99392.34;5092304;28;20003;-77
2023/11/20 03:23:13;;;;;;;;;;;;;;;5.71;51.88;99387.72;5092139;28;20384;-78
2023/11/20 03:25:38;;;;;;;;;;;;;;;5.65;52.33;99367.34;5073925;28;19913;-76
2023/11/20 03:28:04;;;;;;;;;;;;;;;5.62;52.26;99368.47;5092115;28;19995;-77
2023/11/20 03:30:32;;;;;;;;;;;;;;;5.64;52.09;99358.69;5074110;28;19912;-77
2023/11/20 03:32:57;;;;;;;;;;;;;;;5.50;52.35;99348.75;5092591;28;19923;-77
2023/11/20 03:35:22;;;;;;;;;;;;;;;5.47;52.03;99346.41;5092675;28;20308;-77
2023/11/20 03:37:48;;;;;;;;;;;;;;;5.42;52.22;99339.00;5092372;28;19916;-77
2023/11/20 03:40:13;;;;;;;;;;;;;;;5.35;52.13;99337.16;5092529;28;20415;-77
2023/11/20 03:42:38;;;;;;;;;;;;;;;5.28;52.35;99341.34;5073792;28;19916;-77
2023/11/20 03:45:04;;;;;;;;;;;;;;;5.23;52.64;99336.56;5091665;28;19912;-78
2023/11/20 03:47:29;;;;;;;;;;;;;;;5.25;52.43;99333.78;5073901;28;19931;-77
2023/11/20 03:49:54;;;;;;;;;;;;;;;5.18;52.60;99330.09;5091898;28;19938;-77
2023/11/20 03:52:20;;;;;;;;;;;;;;;5.19;52.58;99326.50;5092025;28;19919;-78
2023/11/20 03:54:45;;;;;;;;;;;;;;;5.19;52.47;99322.09;5091968;28;19912;-77
2023/11/20 03:57:10;;;;;;;;;;;;;;;5.22;52.41;99323.63;5091741;28;19913;-78
2023/11/20 03:59:36;;;;;;;;;;;;;;;5.22;52.49;99329.66;5090811;28;19934;-78
2023/11/20 04:02:01;;;;;;;;;;;;;;;5.21;52.55;99330.63;5091796;28;19971;-78
2023/11/20 04:04:26;;;;;;;;;;;;;;;5.20;52.71;99328.13;5092183;28;19919;-78
2023/11/20 04:06:52;;;;;;;;;;;;;;;5.19;53.03;99331.72;5092025;28;20416;-78
2023/11/20 04:09:19;;;;;;;;;;;;;;;5.18;52.74;99330.09;5091855;28;19912;-78
2023/11/20 04:11:44;;;;;;;;;;;;;;;5.20;52.67;99326.38;5073816;28;19951;-78
2023/11/20 04:14:11;;;;;;;;;;;;;;;5.21;52.59;99320.16;5072957;28;20151;-77
2023/11/20 04:16:37;;;;;;;;;;;;;;;5.21;52.68;99324.59;5091591;28;19920;-78
2023/11/20 04:19:03;;;;;;;;;;;;;;;5.21;52.66;99329.81;5073437;28;19964;-77
2023/11/20 04:21:30;;;;;;;;;;;;;;;5.21;52.62;99324.59;5092280;28;19962;-76
2023/11/20 04:23:55;;;;;;;;;;;;;;;5.21;52.42;99322.78;5077194;28;19999;-78
2023/11/20 04:26:21;;;;;;;;;;;;;;;5.21;52.65;99322.78;5095458;28;19948;-77
2023/11/20 04:28:47;;;;;;;;;;;;;;;5.21;52.89;99325.41;5077469;28;19943;-77
2023/11/20 04:31:12;;;;;;;;;;;;;;;5.23;52.69;99328.69;5096185;28;20312;-78
2023/11/20 04:33:38;;;;;;;;;;;;;;;5.22;52.71;99323.63;5095775;28;20006;-78
2023/11/20 04:36:04;;;;;;;;;;;;;;;5.19;53.06;99336.97;5095565;28;19968;-77
2023/11/20 04:38:30;;;;;;;;;;;;;;;5.22;52.79;99331.47;5094338;28;19917;-78
2023/11/20 04:40:56;;;;;;;;;;;;;;;5.22;52.72;99328.84;5095754;28;19908;-78
2023/11/20 04:43:22;;;;;;;;;;;;;;;5.23;52.71;99322.63;5077708;28;20290;-78
2023/11/20 04:45:47;;;;;;;;;;;;;;;5.23;52.70;99327.88;5095388;28;19919;-78
2023/11/20 04:48:13;;;;;;;;;;;;;;;5.19;52.47;99321.25;5095570;28;20037;-77
2023/11/20 04:50:38;;;;;;;;;;;;;;;5.08;52.67;99327.53;5095600;28;19912;-78
2023/11/20 04:53:03;;;;;;;;;;;;;;;5.04;52.99;99336.66;5096374;28;19920;-78
2023/11/20 04:55:28;;;;;;;;;;;;;;;5.00;53.08;99341.34;5096641;28;19912;-77
2023/11/20 04:57:54;;;;;;;;;;;;;;;5.01;53.16;99339.56;5097259;28;19912;-77
2023/11/20 05:00:19;;;;;;;;;;;;;;;5.02;53.20;99333.34;5078420;28;19937;-78
2023/11/20 05:02:45;;;;;;;;;;;;;;;4.98;54.45;99345.91;5096378;28;19985;-77
2023/11/20 05:05:10;;;;;;;;;;;;;;;5.01;54.11;99353.47;5096291;28;19958;-77
2023/11/20 05:07:35;;;;;;;;;;;;;;;5.05;54.12;99346.16;5095988;28;19912;-77
2023/11/20 05:10:01;;;;;;;;;;;;;;;5.08;54.01;99346.69;5077167;28;20438;-77
2023/11/20 05:12:26;;;;;;;;;;;;;;;5.09;54.09;99347.50;5094480;28;19951;-78
2023/11/20 05:14:51;;;;;;;;;;;;;;;5.10;53.70;99342.13;5094541;28;19915;-77
2023/11/20 05:17:20;;;;;;;;;;;;;;;5.12;53.36;99341.97;5094471;28;19968;-78
2023/11/20 05:19:45;;;;;;;;;;;;;;;5.15;53.71;99335.63;5094508;28;19920;-76
2023/11/20 05:22:11;;;;;;;;;;;;;;;5.13;53.97;99337.56;5094485;28;19916;-77
2023/11/20 05:24:38;;;;;;;;;;;;;;;5.17;53.78;99333.66;5094467;28;19916;-77
2023/11/20 05:27:03;;;;;;;;;;;;;;;5.20;54.10;99323.75;5094608;28;19951;-78
2023/11/20 05:29:28;;;;;;;;;;;;;;;5.21;53.87;99335.88;5094522;28;20004;-77
2023/11/20 05:31:54;;;;;;;;;;;;;;;5.23;53.72;99323.47;5094461;28;19920;-77
2023/11/20 05:34:19;;;;;;;;;;;;;;;5.25;53.96;99331.97;5093138;28;19912;-77
2023/11/20 05:36:45;;;;;;;;;;;;;;;5.27;53.96;99319.56;5094336;28;19919;-77
2023/11/20 05:39:10;;;;;;;;;;;;;;;5.31;54.78;99333.19;5094385;28;19942;-77
2023/11/20 05:41:35;;;;;;;;;;;;;;;5.33;54.50;99324.22;5094945;28;19961;-76
2023/11/20 05:44:00;;;;;;;;;;;;;;;5.35;54.29;99319.66;5094321;28;19944;-78
2023/11/20 05:46:26;;;;;;;;;;;;;;;5.41;54.05;99328.69;5092983;28;19967;-78
2023/11/20 05:48:51;;;;;;;;;;;;;;;5.42;54.52;99332.97;5094154;28;19948;-77
2023/11/20 05:51:19;;;;;;;;;;;;;;;5.45;54.54;99326.59;5093842;28;19969;-77
2023/11/20 05:53:44;;;;;;;;;;;;;;;5.45;54.88;99330.03;5093851;28;20445;-78
2023/11/20 05:56:11;;;;;;;;;;;;;;;5.49;53.82;99334.00;5093607;28;19916;-77
2023/11/20 05:58:36;;;;;;;;;;;;;;;5.49;55.16;99325.31;5093672;28;19912;-78
2023/11/20 06:01:01;;;;;;;;;;;;;;;5.54;54.25;99323.91;5093619;28;19948;-78
2023/11/20 06:03:26;;;;;;;;;;;;;;;5.63;54.60;99335.25;5075388;28;20308;-78
2023/11/20 06:05:52;;;;;;;;;;;;;;;5.72;54.32;99337.78;5093557;28;19919;-78
2023/11/20 06:08:17;;;;;;;;;;;;;;;5.74;54.72;99327.97;5093617;28;20025;-77
2023/11/20 06:10:42;;;;;;;;;;;;;;;5.75;54.39;99340.09;5093595;28;20369;-77
2023/11/20 06:13:07;;;;;;;;;;;;;;;5.82;54.34;99355.22;5093398;28;19912;-77
2023/11/20 06:15:33;;;;;;;;;;;;;;;5.87;53.83;99366.06;5093313;28;20304;-78
2023/11/20 06:17:58;;;;;;;;;;;;;;;5.92;53.84;99366.47;5093155;28;20011;-77
2023/11/20 06:20:23;;;;;;;;;;;;;;;5.92;53.60;99371.69;5093162;28;19966;-78
2023/11/20 06:22:49;;;;;;;;;;;;;;;5.91;54.50;99365.63;5093124;28;19923;-77
2023/11/20 06:25:14;;;;;;;;;;;;;;;5.95;53.83;99368.81;5092837;28;20358;-77
2023/11/20 06:27:39;;;;;;;;;;;;;;;5.99;54.07;99365.72;5092855;28;20369;-77
2023/11/20 06:30:05;;;;;;;;;;;;;;;6.08;53.24;99360.53;5092992;28;20339;-78
2023/11/20 06:32:31;;;;;;;;;;;;;;;6.15;52.66;99364.19;5092821;28;19912;-77
2023/11/20 06:34:56;;;;;;;;;;;;;;;6.18;53.56;99374.38;5092841;28;19919;-78
2023/11/20 06:37:21;;;;;;;;;;;;;;;6.21;54.22;99377.50;5092763;28;19908;-78
2023/11/20 06:39:47;;;;;;;;;;;;;;;6.26;53.89;99374.41;5092675;28;19919;-78
2023/11/20 06:42:12;;;;;;;;;;;;;;;6.29;53.38;99374.09;5092516;28;20033;-76
2023/11/20 06:44:40;;;;;;;;;;;;;;;6.35;53.93;99378.72;5092247;28;20002;-78
2023/11/20 06:47:08;;;;;;;;;;;;;;;6.37;52.91;99379.41;5084469;28;19955;-78
2023/11/20 06:49:36;;;;;;;;;;;;;;;6.41;54.72;99383.34;5072241;28;20017;-77
2023/11/20 06:52:02;;;;;;;;;;;;;;;6.44;54.60;99377.78;5077565;28;19995;-78
2023/11/20 06:54:28;;;;;;;;;;;;;;;6.51;53.19;99370.13;5080920;28;19916;-78
2023/11/20 06:56:53;;;;;;;;;;;;;;;6.56;54.42;99384.41;5084549;28;19916;-78
2023/11/20 06:59:19;;;;;;;;;;;;;;;6.64;53.80;99371.34;5078944;28;19995;-77
2023/11/20 07:01:45;;;;;;;;;;;;;;;6.70;53.71;99375.16;5071946;28;19912;-77
2023/11/20 07:04:10;;;;;;;;;;;;;;;6.76;54.19;99371.09;5073727;28;19916;-77
2023/11/20 07:06:37;;;;;;;;;;;;;;;6.79;54.55;99366.34;5091030;28;20439;-77
2023/11/20 07:09:11;;;;;;;;;;;;;;;6.85;54.28;99367.53;5092204;28;19912;-77
2023/11/20 07:11:36;;;;;;;;;;;;;;;6.90;53.83;99360.81;5085745;28;19989;-78
2023/11/20 07:14:02;;;;;;;;;;;;;;;6.96;54.36;99348.84;5082363;28;20347;-78
2023/11/20 07:16:28;;;;;;;;;;;;;;;7.05;54.49;99333.94;5071780;28;19912;-77
2023/11/20 07:18:53;;;;;;;;;;;;;;;7.11;54.14;99331.50;5086778;28;20309;-77
2023/11/20 07:21:19;;;;;;;;;;;;;;;7.17;54.29;99325.59;5085459;28;19916;-77
2023/11/20 07:23:44;;;;;;;;;;;;;;;7.23;54.41;99324.97;5090927;28;19920;-78
2023/11/20 07:26:14;;;;;;;;;;;;;;;7.31;54.13;99332.84;5070961;28;20316;-78
2023/11/20 07:28:41;;;;;;;;;;;;;;;7.40;54.15;99327.59;5086948;28;20327;-78
2023/11/20 07:31:08;;;;;;;;;;;;;;;7.47;53.54;99328.63;5087288;28;19916;-77
2023/11/20 07:33:33;;;;;;;;;;;;;;;7.55;53.61;99320.75;5091844;28;20316;-78
2023/11/20 07:35:58;;;;;;;;;;;;;;;7.62;54.01;99319.91;5090873;28;19908;-75
2023/11/20 07:38:23;;;;;;;;;;;;;;;7.70;53.33;99316.47;5073962;28;19921;-78
2023/11/20 07:40:49;;;;;;;;;;;;;;;7.78;53.55;99320.91;5082470;28;20423;-78
2023/11/20 07:43:14;;;;;;;;;;;;;;;7.87;53.43;99319.91;5073566;28;19917;-79
2023/11/20 07:45:40;;;;;;;;;;;;;;;7.96;53.54;99318.91;5072492;28;20358;-78
2023/11/20 07:48:07;;;;;;;;;;;;;;;8.04;53.18;99315.44;5080072;28;19916;-79
2023/11/20 07:50:32;;;;;;;;;;;;;;;8.14;52.85;99316.06;5084826;28;19966;-78
2023/11/20 07:52:58;;;;;;;;;;;;;;;8.24;52.21;99327.25;5082477;28;19916;-78
2023/11/20 07:55:25;;;;;;;;;;;;;;;8.34;52.78;99330.56;5083328;28;19916;-78
2023/11/20 07:57:51;;;;;;;;;;;;;;;8.45;52.67;99326.75;5083506;28;19916;-75
2023/11/20 08:00:16;;;;;;;;;;;;;;;8.53;52.49;99319.63;5075663;28;19920;-78
2023/11/20 08:02:41;;;;;;;;;;;;;;;8.62;51.50;99309.91;5075328;28;19964;-79
2023/11/20 08:05:08;;;;;;;;;;;;;;;8.71;51.44;99294.88;5061603;28;19920;-77
2023/11/20 08:07:33;;;;;;;;;;;;;;;8.87;51.35;99298.25;5083811;28;19987;-78
2023/11/20 08:09:59;;;;;;;;;;;;;;;9.03;52.38;99292.09;5095643;28;20066;-77
2023/11/20 08:12:24;;;;;;;;;;;;;;;9.26;52.03;99286.03;5086278;28;19923;-78
2023/11/20 08:14:50;;;;;;;;;;;;;;;9.61;50.83;99272.22;5068194;28;19945;-78
2023/11/20 08:17:15;;;;;;;;;;;;;;;9.95;50.72;99271.75;5095867;28;19919;-77
2023/11/20 08:19:40;;;;;;;;;;;;;;;10.23;50.48;99255.34;5092606;28;19921;-78
2023/11/20 08:22:06;;;;;;;;;;;;;;;10.50;50.08;99254.69;5068662;28;20054;-77
2023/11/20 08:24:32;;;;;;;;;;;;;;;10.77;49.75;99247.91;5084345;28;19959;-78
2023/11/20 08:26:58;;;;;;;;;;;;;;;11.04;49.02;99251.63;5075463;28;19920;-77
2023/11/20 08:29:23;;;;;;;;;;;;;;;11.24;48.73;99252.69;5065835;28;19912;-77
2023/11/20 08:31:49;;;;;;;;;;;;;;;11.44;48.46;99252.84;5093392;28;19916;-77
2023/11/20 08:34:15;;;;;;;;;;;;;;;11.67;47.62;99252.63;5089975;28;19916;-75
2023/11/20 08:36:40;;;;;;;;;;;;;;;11.85;47.33;99258.28;5095344;28;19961;-76
2023/11/20 08:39:11;;;;;;;;;;;;;;;12.03;47.20;99241.94;5084668;28;19916;-78
2023/11/20 08:41:38;;;;;;;;;;;;;;;12.24;46.77;99233.09;5057153;28;19913;-77
2023/11/20 08:44:04;;;;;;;;;;;;;;;12.37;46.62;99233.16;5075763;28;19964;-78
2023/11/20 08:46:29;;;;;;;;;;;;;;;12.55;46.59;99216.72;5075510;28;19962;-77
2023/11/20 08:48:54;;;;;;;;;;;;;;;12.65;46.90;99220.66;5086273;28;20485;-78
2023/11/20 08:51:19;;;;;;;;;;;;;;;12.77;46.21;99205.00;5074686;28;19912;-78
2023/11/20 08:53:45;;;;;;;;;;;;;;;12.89;45.83;99213.19;5075069;28;19924;-78
2023/11/20 08:56:10;;;;;;;;;;;;;;;13.07;45.12;99202.00;5093031;28;20316;-78
2023/11/20 08:58:36;;;;;;;;;;;;;;;13.20;45.04;99204.69;5078690;28;19916;-78
2023/11/20 09:01:01;;;;;;;;;;;;;;;13.27;44.95;99185.09;5056501;28;19912;-77
2023/11/20 09:03:27;;;;;;;;;;;;;;;13.46;43.97;99175.53;5079644;28;19928;-78
2023/11/20 09:05:52;;;;;;;;;;;;;;;13.54;44.45;99172.69;5068740;28;19920;-77
2023/11/20 09:08:17;;;;;;;;;;;;;;;13.64;44.40;99180.22;5057683;28;20476;-77
2023/11/20 09:10:44;;;;;;;;;;;;;;;13.74;43.83;99156.72;5089907;28;19928;-78
2023/11/20 09:13:09;;;;;;;;;;;;;;;13.80;43.57;99153.25;5089355;28;19997;-78
2023/11/20 09:15:35;;;;;;;;;;;;;;;13.85;42.84;99150.78;5084291;28;19952;-77
2023/11/20 09:18:00;;;;;;;;;;;;;;;13.95;43.26;99159.13;5073651;28;19956;-78
2023/11/20 09:20:26;;;;;;;;;;;;;;;14.07;43.16;99143.34;5073020;28;19999;-77
2023/11/20 09:22:51;;;;;;;;;;;;;;;14.19;42.99;99157.63;5053689;28;19924;-78
2023/11/20 09:25:17;;;;;;;;;;;;;;;14.26;42.83;99155.75;5053996;28;20361;-78
2023/11/20 09:27:42;;;;;;;;;;;;;;;14.37;41.79;99135.69;5035978;28;19913;-77
2023/11/20 09:30:09;;;;;;;;;;;;;;;14.42;41.63;99143.84;5050168;28;19955;-77
2023/11/20 09:32:35;;;;;;;;;;;;;;;14.48;42.24;99152.81;5071885;28;19916;-78
2023/11/20 09:35:00;;;;;;;;;;;;;;;14.53;42.15;99145.84;5054258;28;19912;-77
2023/11/20 09:37:27;;;;;;;;;;;;;;;14.59;41.58;99141.53;5063787;28;19924;-78
2023/11/20 09:39:53;;;;;;;;;;;;;;;14.68;41.77;99145.56;5055219;28;19913;-77
2023/11/20 09:42:22;;;;;;;;;;;;;;;14.78;41.53;99145.88;5054606;28;19920;-77
2023/11/20 09:44:48;;;;;;;;;;;;;;;14.86;40.73;99144.81;5035852;28;20397;-78
2023/11/20 09:47:14;;;;;;;;;;;;;;;14.92;40.63;99131.50;5065192;28;19924;-78
2023/11/20 09:49:40;;;;;;;;;;;;;;;14.98;39.82;99127.16;5067054;28;19917;-77
2023/11/20 09:52:06;;;;;;;;;;;;;;;15.05;40.54;99127.94;5073026;28;19912;-79
2023/11/20 09:54:34;;;;;;;;;;;;;;;15.14;39.25;99131.94;5069299;28;19920;-78
2023/11/20 09:56:59;;;;;;;;;;;;;;;15.21;40.52;99127.38;5057346;28;20325;-78
2023/11/20 09:59:26;;;;;;;;;;;;;;;15.26;39.07;99118.75;5053240;28;19919;-78
2023/11/20 10:01:51;;;;;;;;;;;;;;;15.31;39.75;99115.44;5066285;28;19916;-77
2023/11/20 10:04:18;;;;;;;;;;;;;;;15.37;39.02;99114.56;5051927;28;20309;-78
2023/11/20 10:06:45;;;;;;;;;;;;;;;15.46;39.36;99114.06;5056180;28;19970;-77
2023/11/20 10:09:15;;;;;;;;;;;;;;;15.52;38.93;99117.69;5054562;28;19916;-78
2023/11/20 10:11:41;;;;;;;;;;;;;;;15.56;39.34;99114.34;5056161;28;20443;-77
2023/11/20 10:14:06;;;;;;;;;;;;;;;15.61;38.96;99112.94;5062426;28;19927;-79
2023/11/20 10:16:35;;;;;;;;;;;;;;;15.65;39.08;99111.47;5073257;28;20324;-77
2023/11/20 10:19:01;;;;;;;;;;;;;;;15.69;38.66;99110.81;5079063;28;19920;-77
2023/11/20 10:21:28;;;;;;;;;;;;;;;15.77;38.78;99136.31;5072666;28;19924;-78
2023/11/20 10:23:57;;;;;;;;;;;;;;;15.80;38.66;99118.06;5072661;28;19917;-77
2023/11/20 10:26:23;;;;;;;;;;;;;;;15.83;38.67;99119.44;5073042;28;20405;-77
2023/11/20 10:28:48;;;;;;;;;;;;;;;15.86;37.95;99100.38;5076935;28;19912;-77
2023/11/20 10:31:13;;;;;;;;;;;;;;;15.91;38.11;99121.81;5072800;28;19913;-78
2023/11/20 10:33:38;;;;;;;;;;;;;;;15.92;37.82;99109.31;5054639;28;19915;-77
2023/11/20 10:36:11;;;;;;;;;;;;;;;15.93;38.13;99126.91;5054595;28;19916;-78
2023/11/20 10:38:37;;;;;;;;;;;;;;;15.95;38.41;99101.69;5072432;28;20314;-78
2023/11/20 10:41:04;;;;;;;;;;;;;;;15.97;38.58;99112.13;5072287;28;19920;-77
2023/11/20 10:43:30;;;;;;;;;;;;;;;15.95;38.92;99101.69;5072245;28;19998;-78
2023/11/20 10:45:56;;;;;;;;;;;;;;;15.98;38.78;99106.56;5070933;28;19981;-78
2023/11/20 10:48:22;;;;;;;;;;;;;;;15.99;39.03;99102.06;5086715;28;19916;-78
2023/11/20 10:50:49;;;;;;;;;;;;;;;16.01;38.33;99102.66;5091031;28;19991;-78
2023/11/20 10:53:17;;;;;;;;;;;;;;;16.00;38.24;99093.03;5089971;28;20402;-77
2023/11/20 10:55:50;;;;;;;;;;;;;;;16.02;38.64;99101.63;5090428;28;20002;-77
2023/11/20 10:58:15;;;;;;;;;;;;;;;16.06;38.06;99105.47;5073929;28;19912;-77
2023/11/20 11:00:41;;;;;;;;;;;;;;;16.09;38.55;99094.34;5091920;28;20385;-77
2023/11/20 11:03:09;;;;;;;;;;;;;;;16.11;38.05;99102.94;5091932;28;20412;-77
2023/11/20 11:05:43;;;;;;;;;;;;;;;16.12;37.90;99099.22;5092050;28;19965;-77
2023/11/20 11:08:09;;;;;;;;;;;;;;;16.11;38.32;99106.41;5089870;28;19912;-77
2023/11/20 11:10:40;;;;;;;;;;;;;;;16.11;38.40;99106.41;5080696;28;19916;-77
2023/11/20 11:13:07;;;;;;;;;;;;;;;16.10;38.48;99102.13;5086530;28;20452;-76
2023/11/20 11:15:32;;;;;;;;;;;;;;;16.15;37.63;99101.44;5087461;28;19916;-77
2023/11/20 11:17:58;;;;;;;;;;;;;;;16.14;37.92;99110.47;5085919;28;20004;-77
2023/11/20 11:20:26;;;;;;;;;;;;;;;16.16;38.16;99121.72;5072293;28;20102;-75
2023/11/20 11:22:59;;;;;;;;;;;;;;;16.19;37.91;99105.28;5069858;28;19922;-78
2023/11/20 11:25:24;;;;;;;;;;;;;;;16.23;38.05;99087.81;5071496;28;19916;-76
2023/11/20 11:27:54;;;;;;;;;;;;;;;16.26;37.65;99099.88;5071069;28;19918;-76
2023/11/20 11:30:20;;;;;;;;;;;;;;;16.26;37.85;99100.69;5053465;28;19992;-77
2023/11/20 11:32:52;;;;;;;;;;;;;;;16.25;37.89;99093.72;5071387;28;19920;-78
2023/11/20 11:35:24;;;;;;;;;;;;;;;16.25;38.40;99093.72;5071722;28;20397;-77
2023/11/20 11:38:04;;;;;;;;;;;;;;;16.23;37.77;99090.47;5071728;28;19916;-77
2023/11/20 11:40:29;;;;;;;;;;;;;;;16.27;38.11;99090.84;5076283;28;20393;-77
2023/11/20 11:42:57;;;;;;;;;;;;;;;16.31;38.22;99105.34;5084998;28;19989;-77
2023/11/20 11:45:27;;;;;;;;;;;;;;;16.33;38.29;99106.72;5076968;28;20449;-77
2023/11/20 11:47:52;;;;;;;;;;;;;;;16.34;37.57;99099.56;5071385;28;19913;-77
2023/11/20 11:50:17;;;;;;;;;;;;;;;16.34;37.76;99099.56;5071469;28;19920;-77
2023/11/20 11:52:47;;;;;;;;;;;;;;;16.34;37.31;99094.22;5086746;28;19916;-77
2023/11/20 11:55:13;;;;;;;;;;;;;;;16.36;37.58;99095.66;5079745;28;19927;-78
2023/11/20 11:57:45;;;;;;;;;;;;;;;16.36;37.12;99100.16;5075856;28;19917;-77
2023/11/20 12:00:16;;;;;;;;;;;;;;;16.38;37.01;99101.56;5085165;28;20071;-77
2023/11/20 12:02:57;;;;;;;;;;;;;;;16.42;37.48;99107.25;5076963;28;19921;-78
2023/11/20 12:05:23;;;;;;;;;;;;;;;16.43;37.48;99099.03;5075596;28;20397;-77
2023/11/20 12:07:52;;;;;;;;;;;;;;;16.44;37.58;99099.84;5073603;28;19961;-78
2023/11/20 12:10:37;;;;;;;;;;;;;;;16.45;37.14;99102.28;5052787;28;19948;-77
2023/11/20 12:13:02;;;;;;;;;;;;;;;16.45;37.95;99107.63;5080915;28;19920;-77
2023/11/20 12:15:40;;;;;;;;;;;;;;;16.47;37.49;99102.06;5088966;28;19916;-79
2023/11/20 12:18:21;;;;;;;;;;;;;;;16.47;38.08;99100.22;5080221;28;19947;-79
2023/11/20 12:20:50;;;;;;;;;;;;;;;16.47;36.78;99094.88;5087554;28;19924;-78
2023/11/20 12:23:20;;;;;;;;;;;;;;;16.47;37.03;99102.88;5073514;28;19921;-78
2023/11/20 12:25:46;;;;;;;;;;;;;;;16.50;38.00;99090.94;5060893;28;19981;-78
2023/11/20 12:28:12;;;;;;;;;;;;;;;16.52;37.36;99088.88;5074177;28;19916;-77
2023/11/20 12:30:37;;;;;;;;;;;;;;;16.50;37.89;99098.94;5060078;28;19935;-78
2023/11/20 12:33:03;;;;;;;;;;;;;;;16.49;37.31;99097.31;5091075;28;19916;-78
2023/11/20 12:35:29;;;;;;;;;;;;;;;16.53;37.00;99101.97;5090981;28;19916;-77
2023/11/20 12:37:54;;;;;;;;;;;;;;;16.59;37.28;99094.09;5080990;28;20413;-78
2023/11/20 12:40:20;;;;;;;;;;;;;;;16.61;37.14;99084.84;5073108;28;19923;-78
2023/11/20 12:42:45;;;;;;;;;;;;;;;16.64;37.32;99099.56;5065444;28;19927;-78
2023/11/20 12:45:10;;;;;;;;;;;;;;;16.70;37.28;99098.69;5083796;28;20389;-77
2023/11/20 12:47:36;;;;;;;;;;;;;;;16.70;36.65;99088.03;5065499;28;19920;-77